Time;durP1;ratioP1;P1;durP2;ratioP2;P2;SDS_P1;SDS_P2;PMS_P1;PMS_P2;Temp;Humidity;BMP_temperature;BMP_pressure;BME280_temperature;BME280_humidity;BME280_pressure;Samples;Min_cycle;Max_cycle;Signal;HPM_P1;HPM_P2
2022/04/16 00:04:51;;;;;;;9.80;6.95;;;;;;;9.53;57.57;98726.28;10099329;29;20037;-84
2022/04/16 00:10:12;;;;;;;8.73;6.47;;;;;;;9.62;57.86;98728.47;10086742;29;20045;-85
2022/04/16 00:15:34;;;;;;;10.50;7.07;;;;;;;9.81;57.58;98730.78;10058679;29;20132;-83
2022/04/16 00:20:57;;;;;;;12.02;8.93;;;;;;;9.77;58.03;98727.66;10086148;29;20107;-84
2022/04/16 00:26:23;;;;;;;14.15;9.80;;;;;;;9.64;58.09;98725.09;10104020;29;20077;-83
2022/04/16 00:31:47;;;;;;;14.85;10.85;;;;;;;9.49;58.32;98730.78;10117546;29;20037;-83
2022/04/16 00:37:24;;;;;;;14.82;9.30;;;;;;;9.40;57.87;98737.69;11043409;23;20056;-82
2022/04/16 00:42:50;;;;;;;12.27;8.52;;;;;;;9.34;58.49;98731.56;10057295;29;20053;-83
2022/04/16 00:48:12;;;;;;;14.05;9.50;;;;;;;9.44;58.01;98741.56;10064803;29;20039;-81
2022/04/16 00:53:34;;;;;;;13.90;9.48;;;;;;;9.32;58.35;98734.91;10072442;29;20042;-81
2022/04/16 00:58:58;;;;;;;13.30;9.23;;;;;;;9.41;58.40;98731.53;10065380;29;20033;-84
2022/04/16 01:04:20;;;;;;;14.90;10.83;;;;;;;9.38;58.32;98734.72;10058803;29;20041;-83
2022/04/16 01:09:42;;;;;;;13.93;9.50;;;;;;;9.38;58.70;98735.47;10030532;29;20034;-83
2022/04/16 01:15:05;;;;;;;15.13;10.18;;;;;;;9.41;58.61;98742.69;10030803;29;20030;-82
2022/04/16 01:20:28;;;;;;;14.87;10.40;;;;;;;9.36;59.09;98737.31;10030850;29;20050;-85
2022/04/16 01:25:50;;;;;;;11.75;9.15;;;;;;;9.34;58.98;98751.81;10045602;29;20033;-84
2022/04/16 01:31:11;;;;;;;14.07;9.80;;;;;;;9.23;58.80;98748.69;10045891;29;20033;-83
2022/04/16 01:36:34;;;;;;;14.80;10.15;;;;;;;9.24;58.92;98758.53;10032740;29;20429;-83
2022/04/16 01:41:57;;;;;;;13.55;9.23;;;;;;;9.25;59.23;98746.81;10037332;29;20133;-81
2022/04/16 01:47:19;;;;;;;12.95;10.02;;;;;;;9.23;58.93;98760.59;10088103;29;20049;-78
2022/04/16 01:52:42;;;;;;;13.35;10.05;;;;;;;9.20;58.74;98767.28;10050008;29;20060;-81
2022/04/16 01:58:06;;;;;;;14.60;11.10;;;;;;;9.19;58.50;98765.81;10066061;29;20061;-82
2022/04/16 02:03:29;;;;;;;15.70;10.68;;;;;;;9.07;58.87;98759.13;10066400;29;20033;-81
2022/04/16 02:08:51;;;;;;;14.05;9.38;;;;;;;9.03;58.63;98769.91;10356987;23;20048;-78
2022/04/16 02:14:14;;;;;;;15.80;10.82;;;;;;;9.05;58.80;98767.31;10096452;29;20026;-79
2022/04/16 02:19:38;;;;;;;15.05;10.60;;;;;;;8.89;58.58;98772.19;10098520;29;20049;-80
2022/04/16 02:25:04;;;;;;;16.08;10.73;;;;;;;8.82;58.97;98778.50;10099341;29;20097;-82
2022/04/16 02:30:30;;;;;;;15.07;10.77;;;;;;;8.88;59.16;98777.00;10108971;29;20065;-83
2022/04/16 02:35:51;;;;;;;15.27;10.07;;;;;;;8.88;59.20;98788.16;10107246;29;20059;-81
2022/04/16 02:41:14;;;;;;;14.55;9.45;;;;;;;8.93;59.53;98786.47;10108378;29;20033;-83
2022/04/16 02:52:17;;;;;;;12.95;9.85;;;;;;;8.87;59.60;98783.13;10113018;29;20068;-84
2022/04/16 02:57:39;;;;;;;13.90;9.35;;;;;;;8.73;59.72;98777.00;10096093;29;20049;-82
2022/04/16 03:40:42;;;;;;;8.45;6.15;;;;;;;8.13;59.06;98805.50;11578054;23;20263;-82
2022/04/16 03:46:06;;;;;;;8.83;6.07;;;;;;;8.06;59.69;98804.19;10104344;29;20033;-80
2022/04/16 03:51:28;;;;;;;8.77;6.55;;;;;;;7.95;59.89;98819.19;10104311;29;20044;-80
2022/04/16 04:47:30;;;;;;;3.78;2.70;;;;;;;7.51;59.04;98864.94;11527042;23;20037;-84
2022/04/16 04:52:52;;;;;;;2.90;2.35;;;;;;;7.42;59.51;98875.25;10162863;29;20059;-82
2022/04/16 04:58:14;;;;;;;4.25;2.90;;;;;;;7.38;59.52;98874.88;10137240;29;20048;-81
2022/04/16 05:03:42;;;;;;;4.45;3.17;;;;;;;7.36;59.13;98883.00;10150990;29;20060;-81
2022/04/16 05:09:04;;;;;;;3.55;2.97;;;;;;;7.46;59.27;98897.16;10149262;29;20028;-84
2022/04/16 05:14:26;;;;;;;3.65;2.90;;;;;;;7.49;59.43;98890.50;10161084;29;20053;-79
2022/04/16 05:19:48;;;;;;;4.55;3.10;;;;;;;7.39;59.36;98903.38;10146822;29;20076;-81
2022/04/16 05:25:10;;;;;;;2.83;2.20;;;;;;;7.31;59.39;98908.88;10146142;29;20040;-80
2022/04/16 05:30:38;;;;;;;6.65;3.53;;;;;;;7.17;59.14;98918.63;10161089;29;20047;-82
2022/04/16 05:36:00;;;;;;;5.18;3.30;;;;;;;7.11;59.37;98924.28;10162934;29;20045;-82
2022/04/16 05:41:22;;;;;;;4.50;3.47;;;;;;;7.08;59.65;98925.38;10135634;29;20056;-82
2022/04/16 05:46:45;;;;;;;6.47;4.35;;;;;;;7.03;59.30;98945.69;10160836;29;20036;-80
2022/04/16 08:11:22;;;;;;;2.20;1.33;;;;;;;8.35;52.01;99088.59;11050097;23;20041;-81
2022/04/16 08:16:45;;;;;;;3.60;1.25;;;;;;;8.59;51.61;99093.03;10125229;29;20036;-81
2022/04/16 08:22:07;;;;;;;1.98;0.82;;;;;;;8.15;50.43;99092.91;10125360;29;20044;-81
2022/04/16 08:27:29;;;;;;;2.70;1.08;;;;;;;8.30;49.23;99087.47;10112432;29;20040;-83
2022/04/16 08:32:50;;;;;;;3.05;1.10;;;;;;;9.29;46.90;99100.31;10111690;29;20058;-84
2022/04/16 08:38:12;;;;;;;1.27;0.65;;;;;;;15.08;44.49;99108.28;10357272;24;20085;-85
2022/04/16 08:43:33;;;;;;;1.55;0.50;;;;;;;23.98;34.84;99106.00;10047192;29;20041;-84
2022/04/16 08:48:54;;;;;;;3.03;0.40;;;;;;;21.98;27.54;99120.00;10072441;29;20097;-83
2022/04/16 08:54:15;;;;;;;2.33;0.57;;;;;;;16.19;30.19;99120.19;10072555;29;20045;-85
2022/04/16 08:59:36;;;;;;;1.60;0.50;;;;;;;13.30;33.29;99121.59;10071878;29;20049;-85
2022/04/16 09:05:17;;;;;;;1.88;0.57;;;;;;;12.27;33.40;99136.41;10071966;29;20076;-82
2022/04/16 09:10:49;;;;;;;3.90;0.70;;;;;;;12.65;33.35;99126.88;10134329;24;20071;-87
2022/04/16 09:16:12;;;;;;;1.98;0.60;;;;;;;16.37;33.05;99126.28;10109940;29;20057;-82
2022/04/16 09:21:33;;;;;;;2.40;0.50;;;;;;;26.14;21.47;99135.78;10123125;29;20049;-84
2022/04/16 09:26:54;;;;;;;2.00;0.30;;;;;;;26.78;16.17;99149.66;10122561;29;20527;-84
2022/04/16 09:32:24;;;;;;;1.90;0.40;;;;;;;24.21;19.64;99146.72;10122607;29;20586;-84
2022/04/16 09:37:52;;;;;;;1.98;0.40;;;;;;;20.90;19.07;99142.63;10109905;29;20052;-84
2022/04/16 09:43:13;;;;;;;1.85;0.57;;;;;;;17.38;21.59;99166.03;10109376;29;20054;-82
2022/04/16 09:48:34;;;;;;;2.17;0.63;;;;;;;18.50;23.36;99147.41;10122380;29;20475;-86
2022/04/16 09:53:55;;;;;;;2.70;0.50;;;;;;;19.11;21.27;99159.44;10108972;29;20403;-84
2022/04/16 09:59:16;;;;;;;1.23;0.43;;;;;;;16.65;22.85;99180.25;10135079;29;20055;-83
2022/04/16 10:04:37;;;;;;;2.33;0.50;;;;;;;16.05;24.05;99167.09;10111150;29;20045;-83
2022/04/16 10:09:58;;;;;;;2.00;0.45;;;;;;;15.52;24.00;99171.09;10076768;29;20411;-83
2022/04/16 10:15:21;;;;;;;1.45;0.40;;;;;;;14.89;24.88;99187.00;10078563;29;20053;-83
2022/04/16 10:20:55;;;;;;;1.30;0.50;;;;;;;18.49;24.48;99182.69;10065113;29;20045;-85
2022/04/16 10:26:16;;;;;;;1.42;0.52;;;;;;;18.85;22.87;99186.22;10078001;29;20045;-85
2022/04/16 10:31:38;;;;;;;1.60;0.50;;;;;;;17.94;21.70;99179.38;10064985;29;20073;-81
2022/04/16 10:36:59;;;;;;;1.95;0.60;;;;;;;17.29;23.24;99186.59;10064787;29;20112;-83
2022/04/16 10:42:31;;;;;;;1.95;0.60;;;;;;;17.54;23.25;99196.63;10064700;29;20045;-83
2022/04/16 10:48:11;;;;;;;2.25;0.80;;;;;;;16.93;23.50;99190.63;10072122;29;20045;-83
2022/04/16 10:53:34;;;;;;;1.60;0.95;;;;;;;16.25;23.36;99193.84;10064218;29;20049;-84
2022/04/16 10:59:01;;;;;;;2.30;0.87;;;;;;;14.84;24.91;99194.38;10077013;29;20048;-84
2022/04/16 11:04:22;;;;;;;2.20;0.70;;;;;;;16.55;24.71;99194.41;10076130;29;20097;-84
2022/04/16 11:09:42;;;;;;;2.40;0.70;;;;;;;16.11;24.03;99195.66;10089185;29;20071;-85
2022/04/16 11:15:07;;;;;;;1.20;0.43;;;;;;;17.00;24.15;99192.50;10075908;29;20045;-86
2022/04/16 11:20:30;;;;;;;1.70;0.45;;;;;;;18.41;23.00;99187.88;10062898;29;20041;-86
2022/04/16 11:37:10;;;;;;;2.25;0.70;;;;;;;16.43;23.01;99187.97;10090905;29;20049;-87
2022/04/16 11:42:32;;;;;;;1.60;0.68;;;;;;;16.13;23.88;99192.28;10075236;29;20053;-86
2022/04/16 11:47:52;;;;;;;1.27;0.68;;;;;;;15.44;24.33;99188.91;10049616;29;20052;-87
2022/04/16 11:53:13;;;;;;;1.92;0.80;;;;;;;16.17;24.34;99179.19;10087560;29;20060;-85
2022/04/16 11:58:34;;;;;;;2.22;0.70;;;;;;;16.12;23.93;99171.09;10074590;29;20052;-87
2022/04/16 12:03:56;;;;;;;1.77;0.50;;;;;;;15.63;24.24;99171.28;10074157;29;20041;-85
2022/04/16 12:09:17;;;;;;;3.67;0.80;;;;;;;15.03;24.46;99167.63;10087032;29;20064;-83
2022/04/16 12:14:52;;;;;;;2.58;0.70;;;;;;;15.54;25.12;99168.44;10097534;24;20575;-86
2022/04/16 12:20:13;;;;;;;2.85;0.70;;;;;;;15.82;24.68;99169.69;10086620;29;20048;-86
2022/04/16 12:25:34;;;;;;;1.10;0.50;;;;;;;15.82;24.48;99170.44;10073399;29;20105;-85
2022/04/16 12:30:55;;;;;;;1.48;0.60;;;;;;;16.08;24.47;99165.91;10086194;29;20103;-86
2022/04/16 12:36:15;;;;;;;2.03;0.80;;;;;;;15.78;24.52;99177.88;10086077;29;20049;-87
2022/04/16 12:41:38;;;;;;;1.65;0.60;;;;;;;15.35;24.59;99160.78;10073017;29;20049;-82
2022/04/16 12:46:58;;;;;;;2.72;0.65;;;;;;;15.16;25.09;99167.91;10073317;29;20041;-81
2022/04/16 12:52:24;;;;;;;1.30;0.57;;;;;;;14.91;24.85;99175.91;10104221;29;20084;-79
2022/04/16 13:16:52;;;;;;;2.17;0.75;;;;;;;14.77;25.74;99149.59;11178001;23;20056;-80
2022/04/16 13:22:23;;;;;;;1.88;0.50;;;;;;;15.27;24.55;99155.31;10246537;24;20061;-80
2022/04/16 13:27:53;;;;;;;1.45;0.40;;;;;;;14.83;24.86;99156.38;10919578;23;20036;-79
2022/04/16 13:33:15;;;;;;;1.75;0.40;;;;;;;14.81;24.64;99169.53;11205762;23;20060;-79
2022/04/16 13:38:37;;;;;;;1.85;0.68;;;;;;;15.26;24.92;99153.84;10129650;29;20124;-80
2022/04/16 14:09:34;;;;;;;3.92;0.90;;;;;;;13.26;26.27;99157.00;12280180;23;20044;31
2022/04/16 14:21:20;;;;;;;2.78;0.50;;;;;;;13.46;26.28;99148.13;9993359;29;20063;-84
2022/04/16 14:33:04;;;;;;;1.27;0.30;;;;;;;13.08;26.48;99150.66;12280331;23;20072;31
2022/04/16 14:38:26;;;;;;;1.33;0.40;;;;;;;13.10;26.28;99153.59;10106707;29;20053;-84
2022/04/16 14:43:48;;;;;;;2.40;0.50;;;;;;;12.59;26.91;99147.47;10095239;29;20060;-82
2022/04/16 14:49:10;;;;;;;1.10;0.45;;;;;;;12.85;27.40;99134.84;10095338;29;20056;-84
2022/04/16 14:54:40;;;;;;;1.83;0.60;;;;;;;12.80;27.21;99141.44;11251453;23;20015;31
2022/04/16 15:00:24;;;;;;;2.78;0.40;;;;;;;12.41;27.14;99139.63;10065019;29;20065;-84
2022/04/16 15:05:49;;;;;;;1.25;0.50;;;;;;;12.35;27.81;99139.84;10049870;29;20041;-83
2022/04/16 15:11:10;;;;;;;1.17;0.50;;;;;;;12.49;27.58;99120.69;10038513;29;20054;-83
2022/04/16 15:16:32;;;;;;;1.95;0.70;;;;;;;12.26;27.40;99127.25;10075175;29;20041;-83
2022/04/16 15:21:54;;;;;;;1.30;0.50;;;;;;;11.85;28.22;99117.50;10062282;29;20040;-84
2022/04/16 15:27:16;;;;;;;2.92;0.65;;;;;;;11.81;28.36;99116.44;10061928;29;20040;-84
2022/04/16 15:32:38;;;;;;;1.88;0.60;;;;;;;11.91;28.46;99122.88;10037437;29;20037;-83
2022/04/16 15:37:59;;;;;;;1.38;0.40;;;;;;;12.06;28.42;99111.56;10061739;29;20496;-84
2022/04/16 15:56:11;;;;;;;1.90;0.67;;;;;;;12.52;27.84;99119.53;10035218;29;20102;-82
2022/04/16 16:01:32;;;;;;;2.63;0.47;;;;;;;12.03;28.85;99118.31;10023268;29;20063;-84
2022/04/16 16:06:54;;;;;;;1.42;0.65;;;;;;;11.71;29.11;99124.69;10048873;29;20057;-83
2022/04/16 16:12:19;;;;;;;1.27;0.57;;;;;;;11.61;29.10;99121.78;10047951;29;20073;-83
2022/04/16 16:17:48;;;;;;;1.50;0.50;;;;;;;11.37;29.45;99116.88;10072647;29;20565;-81
2022/04/16 16:23:09;;;;;;;1.65;0.60;;;;;;;11.20;29.37;99125.19;10061107;29;20058;-82
2022/04/16 16:28:31;;;;;;;2.47;0.47;;;;;;;11.01;29.84;99120.81;10060194;29;20075;-84
2022/04/16 16:33:56;;;;;;;3.55;0.50;;;;;;;11.03;29.68;99115.41;10084816;29;20066;-84
2022/04/16 16:39:17;;;;;;;1.35;0.40;;;;;;;11.02;29.98;99125.09;10098386;29;20033;-83
2022/04/16 16:44:39;;;;;;;1.60;0.50;;;;;;;10.93;30.28;99125.69;10072276;29;20111;-83
2022/04/16 16:50:01;;;;;;;1.73;0.50;;;;;;;10.84;30.52;99124.22;10081996;29;20054;-84
2022/04/16 16:55:23;;;;;;;3.35;0.68;;;;;;;10.78;30.81;99120.13;10082660;29;20568;-84
2022/04/16 17:00:45;;;;;;;1.83;0.60;;;;;;;10.63;30.59;99125.78;10097391;29;20078;-83
2022/04/16 17:06:07;;;;;;;4.05;0.80;;;;;;;10.52;31.53;99122.09;10063679;29;20041;-83
2022/04/16 17:11:28;;;;;;;1.95;0.52;;;;;;;10.52;31.30;99127.69;10059162;29;20041;-83
2022/04/16 17:22:30;;;;;;;1.70;0.60;;;;;;;10.25;31.39;99137.75;10050821;29;20026;-84
2022/04/16 17:27:51;;;;;;;2.10;0.57;;;;;;;10.06;31.59;99131.78;10033477;29;20061;-82
2022/04/16 17:33:13;;;;;;;1.75;0.40;;;;;;;9.95;32.10;99136.44;10032954;29;20034;-83
2022/04/16 17:38:34;;;;;;;1.25;0.50;;;;;;;9.85;31.86;99140.34;10046185;29;20033;-84
2022/04/16 17:43:56;;;;;;;1.90;0.68;;;;;;;9.81;32.13;99151.88;10045991;29;20040;-83
2022/04/16 17:49:18;;;;;;;2.15;0.80;;;;;;;9.72;32.87;99150.38;10033137;29;20045;-82
2022/04/16 17:54:40;;;;;;;4.20;0.82;;;;;;;9.61;32.73;99158.34;10045726;29;20060;-82
2022/04/16 18:00:04;;;;;;;2.63;0.85;;;;;;;9.46;33.12;99161.84;10045688;29;20030;-83
2022/04/16 18:05:25;;;;;;;2.22;0.90;;;;;;;9.32;33.26;99172.38;10045817;29;20045;-82
2022/04/16 18:10:48;;;;;;;2.30;1.00;;;;;;;9.22;33.73;99165.84;10120290;23;20129;-81
2022/04/16 18:16:11;;;;;;;2.70;0.88;;;;;;;9.06;34.20;99165.03;10186585;29;20036;-84
2022/04/16 18:21:32;;;;;;;2.53;0.93;;;;;;;8.99;33.80;99176.91;10200014;29;20028;-83
2022/04/16 18:26:54;;;;;;;2.70;1.15;;;;;;;8.95;34.57;99178.56;10186788;29;20044;-83
2022/04/16 18:32:19;;;;;;;4.18;1.58;;;;;;;8.82;34.31;99188.53;11136215;23;20048;-82
2022/04/16 18:37:40;;;;;;;3.88;1.70;;;;;;;8.80;34.58;99204.28;10194294;29;20034;-82
2022/04/16 18:43:04;;;;;;;5.60;1.10;;;;;;;8.67;34.99;99205.13;10207111;29;20071;-84
2022/04/16 18:48:28;;;;;;;1.98;1.02;;;;;;;8.63;35.27;99210.31;10194087;29;20052;-82
2022/04/16 19:12:50;;;;;;;3.65;1.23;;;;;;;8.53;36.03;99226.00;10972836;23;20100;-82
2022/04/16 19:18:12;;;;;;;3.13;1.20;;;;;;;8.47;35.97;99212.22;10192398;29;20032;-83
2022/04/16 19:23:34;;;;;;;2.55;1.05;;;;;;;8.44;36.26;99218.16;10205356;29;20057;-84
2022/04/16 19:28:56;;;;;;;5.93;1.50;;;;;;;8.41;36.46;99219.25;10192016;29;20028;-81
2022/04/16 19:34:17;;;;;;;3.10;1.50;;;;;;;8.38;36.55;99211.97;10192149;29;20039;-82
2022/04/16 19:39:39;;;;;;;3.83;1.30;;;;;;;8.31;36.77;99210.59;10190834;29;20060;-82
2022/04/16 19:45:00;;;;;;;4.63;1.40;;;;;;;8.25;37.10;99215.56;10191483;29;20067;-83
2022/04/16 19:50:22;;;;;;;3.97;1.55;;;;;;;8.16;37.19;99210.47;10191456;29;20034;-82
2022/04/16 20:27:13;;;;;;;13.88;5.82;;;;;;;7.77;38.60;99219.75;10149448;29;20044;-83
2022/04/16 20:32:34;;;;;;;17.10;8.60;;;;;;;7.77;38.80;99220.50;10125470;29;20056;-83
2022/04/16 20:37:56;;;;;;;10.43;4.90;;;;;;;7.65;38.55;99206.13;10112171;29;20072;-81
2022/04/16 20:48:59;;;;;;;9.50;4.40;;;;;;;7.45;39.38;99217.94;10126606;29;20037;-83
2022/04/16 20:54:24;;;;;;;17.38;7.97;;;;;;;7.30;39.71;99209.41;10124254;29;20045;-83
2022/04/16 20:59:49;;;;;;;19.65;7.60;;;;;;;7.28;39.75;99207.19;10149860;29;20033;-82
2022/04/16 21:05:10;;;;;;;;;;;;;;;7.30;40.51;99210.16;10125083;29;20059;-81
